sensor_id;sensor_type;location;lat;lon;timestamp;P1;durP1;ratioP1;P2;durP2;ratioP2
59998;SDS011;45859;51.378;6.736;2022-07-05T00:00:45;3.10;;;2.00;;
59998;SDS011;45859;51.378;6.736;2022-07-05T00:03:11;5.37;;;2.00;;
59998;SDS011;45859;51.378;6.736;2022-07-05T00:05:38;4.00;;;2.17;;
59998;SDS011;45859;51.378;6.736;2022-07-05T00:08:04;3.57;;;1.80;;
59998;SDS011;45859;51.378;6.736;2022-07-05T00:10:31;3.93;;;1.80;;
59998;SDS011;45859;51.378;6.736;2022-07-05T00:12:57;2.97;;;2.00;;
59998;SDS011;45859;51.378;6.736;2022-07-05T00:15:23;2.27;;;1.77;;
59998;SDS011;45859;51.378;6.736;2022-07-05T00:17:49;2.67;;;1.90;;
59998;SDS011;45859;51.378;6.736;2022-07-05T00:20:15;3.27;;;2.07;;
59998;SDS011;45859;51.378;6.736;2022-07-05T00:22:41;2.13;;;1.93;;
59998;SDS011;45859;51.378;6.736;2022-07-05T00:25:06;4.10;;;2.30;;
59998;SDS011;45859;51.378;6.736;2022-07-05T00:27:32;4.77;;;1.70;;
59998;SDS011;45859;51.378;6.736;2022-07-05T00:29:58;2.97;;;1.80;;
59998;SDS011;45859;51.378;6.736;2022-07-05T00:32:24;2.93;;;1.60;;
59998;SDS011;45859;51.378;6.736;2022-07-05T00:34:50;3.07;;;2.00;;
59998;SDS011;45859;51.378;6.736;2022-07-05T00:37:18;3.13;;;1.90;;
59998;SDS011;45859;51.378;6.736;2022-07-05T00:39:43;4.00;;;2.10;;
59998;SDS011;45859;51.378;6.736;2022-07-05T00:42:09;2.17;;;1.70;;
59998;SDS011;45859;51.378;6.736;2022-07-05T00:44:36;3.77;;;1.73;;
59998;SDS011;45859;51.378;6.736;2022-07-05T00:47:04;2.67;;;2.07;;
59998;SDS011;45859;51.378;6.736;2022-07-05T00:49:31;2.70;;;1.67;;
59998;SDS011;45859;51.378;6.736;2022-07-05T00:51:58;2.13;;;1.40;;
59998;SDS011;45859;51.378;6.736;2022-07-05T00:54:28;2.63;;;1.70;;
59998;SDS011;45859;51.378;6.736;2022-07-05T00:56:55;2.55;;;1.83;;
59998;SDS011;45859;51.378;6.736;2022-07-05T00:59:21;2.67;;;1.60;;
59998;SDS011;45859;51.378;6.736;2022-07-05T01:01:47;2.00;;;1.60;;
59998;SDS011;45859;51.378;6.736;2022-07-05T01:04:13;2.87;;;2.00;;
59998;SDS011;45859;51.378;6.736;2022-07-05T01:06:42;2.50;;;1.60;;
59998;SDS011;45859;51.378;6.736;2022-07-05T01:09:12;2.47;;;1.40;;
59998;SDS011;45859;51.378;6.736;2022-07-05T01:11:40;2.27;;;1.63;;
59998;SDS011;45859;51.378;6.736;2022-07-05T01:14:11;2.37;;;1.60;;
59998;SDS011;45859;51.378;6.736;2022-07-05T01:16:40;3.25;;;1.67;;
59998;SDS011;45859;51.378;6.736;2022-07-05T01:19:06;2.07;;;1.50;;
59998;SDS011;45859;51.378;6.736;2022-07-05T01:21:36;2.33;;;1.50;;
59998;SDS011;45859;51.378;6.736;2022-07-05T01:24:04;2.50;;;1.75;;
59998;SDS011;45859;51.378;6.736;2022-07-05T01:26:30;2.80;;;2.03;;
59998;SDS011;45859;51.378;6.736;2022-07-05T01:28:57;2.57;;;1.80;;
59998;SDS011;45859;51.378;6.736;2022-07-05T01:31:22;3.47;;;1.90;;
59998;SDS011;45859;51.378;6.736;2022-07-05T01:33:48;2.87;;;1.77;;
59998;SDS011;45859;51.378;6.736;2022-07-05T01:36:14;2.27;;;1.60;;
59998;SDS011;45859;51.378;6.736;2022-07-05T01:38:40;2.97;;;1.63;;
59998;SDS011;45859;51.378;6.736;2022-07-05T01:41:06;2.47;;;1.80;;
59998;SDS011;45859;51.378;6.736;2022-07-05T01:43:34;3.37;;;1.80;;
59998;SDS011;45859;51.378;6.736;2022-07-05T01:46:00;4.27;;;1.70;;
59998;SDS011;45859;51.378;6.736;2022-07-05T01:48:29;4.07;;;1.87;;
59998;SDS011;45859;51.378;6.736;2022-07-05T01:51:00;3.90;;;1.80;;
59998;SDS011;45859;51.378;6.736;2022-07-05T01:53:30;4.33;;;1.90;;
59998;SDS011;45859;51.378;6.736;2022-07-05T01:55:57;3.13;;;1.60;;
59998;SDS011;45859;51.378;6.736;2022-07-05T01:58:27;2.37;;;1.30;;
59998;SDS011;45859;51.378;6.736;2022-07-05T02:00:54;1.83;;;1.70;;
59998;SDS011;45859;51.378;6.736;2022-07-05T02:03:20;3.37;;;2.00;;
59998;SDS011;45859;51.378;6.736;2022-07-05T02:05:47;2.00;;;1.77;;
59998;SDS011;45859;51.378;6.736;2022-07-05T02:08:14;2.70;;;1.70;;
59998;SDS011;45859;51.378;6.736;2022-07-05T02:10:41;3.20;;;1.57;;
59998;SDS011;45859;51.378;6.736;2022-07-05T02:13:07;1.70;;;1.60;;
59998;SDS011;45859;51.378;6.736;2022-07-05T02:15:33;3.23;;;1.70;;
59998;SDS011;45859;51.378;6.736;2022-07-05T02:18:01;2.37;;;1.60;;
59998;SDS011;45859;51.378;6.736;2022-07-05T02:20:28;1.80;;;1.70;;
59998;SDS011;45859;51.378;6.736;2022-07-05T02:22:54;2.37;;;1.60;;
59998;SDS011;45859;51.378;6.736;2022-07-05T02:25:20;2.13;;;1.57;;
59998;SDS011;45859;51.378;6.736;2022-07-05T02:27:46;2.33;;;1.80;;
59998;SDS011;45859;51.378;6.736;2022-07-05T02:30:12;2.50;;;1.67;;
59998;SDS011;45859;51.378;6.736;2022-07-05T02:32:38;2.93;;;1.90;;
59998;SDS011;45859;51.378;6.736;2022-07-05T02:35:04;2.93;;;1.67;;
59998;SDS011;45859;51.378;6.736;2022-07-05T02:37:31;3.40;;;1.77;;
59998;SDS011;45859;51.378;6.736;2022-07-05T02:39:57;2.63;;;1.87;;
59998;SDS011;45859;51.378;6.736;2022-07-05T02:42:22;2.30;;;1.90;;
59998;SDS011;45859;51.378;6.736;2022-07-05T02:44:48;2.60;;;1.70;;
59998;SDS011;45859;51.378;6.736;2022-07-05T02:47:14;2.27;;;1.87;;
59998;SDS011;45859;51.378;6.736;2022-07-05T02:49:39;2.30;;;1.63;;
59998;SDS011;45859;51.378;6.736;2022-07-05T02:52:05;2.40;;;1.70;;
59998;SDS011;45859;51.378;6.736;2022-07-05T02:54:31;2.53;;;1.67;;
59998;SDS011;45859;51.378;6.736;2022-07-05T02:56:58;2.33;;;1.50;;
59998;SDS011;45859;51.378;6.736;2022-07-05T02:59:24;2.23;;;2.03;;
59998;SDS011;45859;51.378;6.736;2022-07-05T03:01:49;3.00;;;1.57;;
59998;SDS011;45859;51.378;6.736;2022-07-05T03:04:15;2.77;;;1.80;;
59998;SDS011;45859;51.378;6.736;2022-07-05T03:06:41;6.20;;;2.00;;
59998;SDS011;45859;51.378;6.736;2022-07-05T03:09:07;2.50;;;1.93;;
59998;SDS011;45859;51.378;6.736;2022-07-05T03:11:32;1.83;;;1.73;;
59998;SDS011;45859;51.378;6.736;2022-07-05T03:13:58;3.33;;;2.20;;
59998;SDS011;45859;51.378;6.736;2022-07-05T03:16:23;2.67;;;2.03;;
59998;SDS011;45859;51.378;6.736;2022-07-05T03:18:50;2.43;;;2.10;;
59998;SDS011;45859;51.378;6.736;2022-07-05T03:21:16;3.77;;;2.00;;
59998;SDS011;45859;51.378;6.736;2022-07-05T03:23:42;5.50;;;2.33;;
59998;SDS011;45859;51.378;6.736;2022-07-05T03:26:07;2.87;;;1.93;;
59998;SDS011;45859;51.378;6.736;2022-07-05T03:28:33;3.63;;;2.50;;
59998;SDS011;45859;51.378;6.736;2022-07-05T03:30:58;4.07;;;2.20;;
59998;SDS011;45859;51.378;6.736;2022-07-05T03:33:24;4.57;;;2.20;;
59998;SDS011;45859;51.378;6.736;2022-07-05T03:35:50;4.30;;;2.30;;
59998;SDS011;45859;51.378;6.736;2022-07-05T03:38:16;4.13;;;2.43;;
59998;SDS011;45859;51.378;6.736;2022-07-05T03:40:42;2.80;;;2.47;;
59998;SDS011;45859;51.378;6.736;2022-07-05T03:43:07;3.60;;;2.50;;
59998;SDS011;45859;51.378;6.736;2022-07-05T03:45:33;5.67;;;2.80;;
59998;SDS011;45859;51.378;6.736;2022-07-05T03:47:59;4.87;;;2.53;;
59998;SDS011;45859;51.378;6.736;2022-07-05T03:50:25;4.50;;;2.50;;
59998;SDS011;45859;51.378;6.736;2022-07-05T03:52:52;4.53;;;2.70;;
59998;SDS011;45859;51.378;6.736;2022-07-05T03:55:17;3.97;;;2.60;;
59998;SDS011;45859;51.378;6.736;2022-07-05T03:57:43;4.60;;;2.37;;
59998;SDS011;45859;51.378;6.736;2022-07-05T04:00:09;4.37;;;3.00;;
59998;SDS011;45859;51.378;6.736;2022-07-05T04:02:35;5.03;;;2.90;;
59998;SDS011;45859;51.378;6.736;2022-07-05T04:05:00;2.67;;;2.47;;
59998;SDS011;45859;51.378;6.736;2022-07-05T04:07:26;5.43;;;3.20;;
59998;SDS011;45859;51.378;6.736;2022-07-05T04:09:52;5.77;;;2.97;;
59998;SDS011;45859;51.378;6.736;2022-07-05T04:12:18;3.80;;;2.57;;
59998;SDS011;45859;51.378;6.736;2022-07-05T04:14:44;6.97;;;2.97;;
59998;SDS011;45859;51.378;6.736;2022-07-05T04:17:09;5.60;;;3.30;;
59998;SDS011;45859;51.378;6.736;2022-07-05T04:19:35;6.10;;;2.80;;
59998;SDS011;45859;51.378;6.736;2022-07-05T04:22:01;6.70;;;3.10;;
59998;SDS011;45859;51.378;6.736;2022-07-05T04:24:27;7.00;;;3.00;;
59998;SDS011;45859;51.378;6.736;2022-07-05T04:26:52;4.37;;;2.83;;
59998;SDS011;45859;51.378;6.736;2022-07-05T04:29:18;5.83;;;3.30;;
59998;SDS011;45859;51.378;6.736;2022-07-05T04:31:44;6.60;;;3.27;;
59998;SDS011;45859;51.378;6.736;2022-07-05T04:34:09;4.70;;;3.60;;
59998;SDS011;45859;51.378;6.736;2022-07-05T04:36:35;7.83;;;3.60;;
59998;SDS011;45859;51.378;6.736;2022-07-05T04:39:02;5.97;;;3.57;;
59998;SDS011;45859;51.378;6.736;2022-07-05T04:41:29;5.40;;;3.33;;
59998;SDS011;45859;51.378;6.736;2022-07-05T04:43:54;7.53;;;3.80;;
59998;SDS011;45859;51.378;6.736;2022-07-05T04:46:20;14.70;;;5.13;;
59998;SDS011;45859;51.378;6.736;2022-07-05T04:48:45;8.97;;;4.57;;
59998;SDS011;45859;51.378;6.736;2022-07-05T04:51:11;5.47;;;3.73;;
59998;SDS011;45859;51.378;6.736;2022-07-05T04:53:37;13.43;;;4.80;;
59998;SDS011;45859;51.378;6.736;2022-07-05T04:56:03;9.77;;;4.07;;
59998;SDS011;45859;51.378;6.736;2022-07-05T04:58:30;8.73;;;3.67;;
59998;SDS011;45859;51.378;6.736;2022-07-05T05:00:55;7.83;;;4.20;;
59998;SDS011;45859;51.378;6.736;2022-07-05T05:03:21;6.20;;;4.00;;
59998;SDS011;45859;51.378;6.736;2022-07-05T05:05:47;7.72;;;4.50;;
59998;SDS011;45859;51.378;6.736;2022-07-05T05:08:13;7.00;;;3.80;;
59998;SDS011;45859;51.378;6.736;2022-07-05T05:10:38;7.18;;;3.70;;
59998;SDS011;45859;51.378;6.736;2022-07-05T05:13:04;7.45;;;3.65;;
59998;SDS011;45859;51.378;6.736;2022-07-05T05:15:30;6.43;;;3.72;;
59998;SDS011;45859;51.378;6.736;2022-07-05T05:17:55;5.88;;;3.35;;
59998;SDS011;45859;51.378;6.736;2022-07-05T05:20:21;4.82;;;3.58;;
59998;SDS011;45859;51.378;6.736;2022-07-05T05:22:47;6.75;;;3.72;;
59998;SDS011;45859;51.378;6.736;2022-07-05T05:25:13;5.90;;;3.67;;
59998;SDS011;45859;51.378;6.736;2022-07-05T05:27:46;6.63;;;3.80;;
59998;SDS011;45859;51.378;6.736;2022-07-05T05:30:16;7.35;;;3.95;;
59998;SDS011;45859;51.378;6.736;2022-07-05T05:32:43;6.60;;;3.92;;
59998;SDS011;45859;51.378;6.736;2022-07-05T05:35:09;9.30;;;3.75;;
59998;SDS011;45859;51.378;6.736;2022-07-05T05:37:51;7.55;;;3.72;;
59998;SDS011;45859;51.378;6.736;2022-07-05T05:40:18;6.57;;;3.72;;
59998;SDS011;45859;51.378;6.736;2022-07-05T05:42:44;7.40;;;3.80;;
59998;SDS011;45859;51.378;6.736;2022-07-05T05:45:10;7.47;;;3.58;;
59998;SDS011;45859;51.378;6.736;2022-07-05T05:47:51;4.55;;;3.25;;
59998;SDS011;45859;51.378;6.736;2022-07-05T05:50:21;6.88;;;3.75;;
59998;SDS011;45859;51.378;6.736;2022-07-05T05:52:48;4.82;;;3.58;;
59998;SDS011;45859;51.378;6.736;2022-07-05T05:55:14;3.80;;;3.40;;
59998;SDS011;45859;51.378;6.736;2022-07-05T05:57:40;5.05;;;3.25;;
59998;SDS011;45859;51.378;6.736;2022-07-05T06:00:07;4.18;;;3.10;;
59998;SDS011;45859;51.378;6.736;2022-07-05T06:02:33;5.15;;;3.38;;
59998;SDS011;45859;51.378;6.736;2022-07-05T06:04:59;9.65;;;3.58;;
59998;SDS011;45859;51.378;6.736;2022-07-05T06:07:24;7.22;;;3.58;;
59998;SDS011;45859;51.378;6.736;2022-07-05T06:09:50;5.00;;;3.03;;
59998;SDS011;45859;51.378;6.736;2022-07-05T06:12:16;21.83;;;4.20;;
59998;SDS011;45859;51.378;6.736;2022-07-05T06:14:41;13.63;;;3.60;;
59998;SDS011;45859;51.378;6.736;2022-07-05T06:17:07;5.55;;;3.28;;
59998;SDS011;45859;51.378;6.736;2022-07-05T06:19:32;5.70;;;3.22;;
59998;SDS011;45859;51.378;6.736;2022-07-05T06:21:58;7.88;;;3.20;;
59998;SDS011;45859;51.378;6.736;2022-07-05T06:24:24;8.32;;;3.28;;
59998;SDS011;45859;51.378;6.736;2022-07-05T06:26:49;14.93;;;4.90;;
59998;SDS011;45859;51.378;6.736;2022-07-05T06:29:15;17.77;;;7.28;;
59998;SDS011;45859;51.378;6.736;2022-07-05T06:31:40;15.13;;;6.60;;
59998;SDS011;45859;51.378;6.736;2022-07-05T06:34:06;15.48;;;6.53;;
59998;SDS011;45859;51.378;6.736;2022-07-05T06:36:32;14.07;;;7.30;;
59998;SDS011;45859;51.378;6.736;2022-07-05T06:38:58;11.88;;;6.40;;
59998;SDS011;45859;51.378;6.736;2022-07-05T06:41:23;10.10;;;5.47;;
59998;SDS011;45859;51.378;6.736;2022-07-05T06:43:49;7.03;;;2.88;;
59998;SDS011;45859;51.378;6.736;2022-07-05T06:46:15;3.30;;;1.85;;
59998;SDS011;45859;51.378;6.736;2022-07-05T06:48:40;2.90;;;1.58;;
59998;SDS011;45859;51.378;6.736;2022-07-05T06:51:06;2.05;;;1.10;;
59998;SDS011;45859;51.378;6.736;2022-07-05T06:53:32;4.57;;;1.48;;
59998;SDS011;45859;51.378;6.736;2022-07-05T06:55:57;4.07;;;1.35;;
59998;SDS011;45859;51.378;6.736;2022-07-05T06:58:23;2.90;;;1.40;;
59998;SDS011;45859;51.378;6.736;2022-07-05T07:00:49;1.83;;;1.00;;
59998;SDS011;45859;51.378;6.736;2022-07-05T07:03:14;2.45;;;0.80;;
59998;SDS011;45859;51.378;6.736;2022-07-05T07:05:41;2.13;;;1.00;;
59998;SDS011;45859;51.378;6.736;2022-07-05T07:08:06;3.53;;;1.17;;
59998;SDS011;45859;51.378;6.736;2022-07-05T07:10:51;6.20;;;1.80;;
59998;SDS011;45859;51.378;6.736;2022-07-05T07:13:16;2.90;;;1.65;;
59998;SDS011;45859;51.378;6.736;2022-07-05T07:15:42;4.78;;;1.75;;
59998;SDS011;45859;51.378;6.736;2022-07-05T07:18:08;5.03;;;1.70;;
59998;SDS011;45859;51.378;6.736;2022-07-05T07:20:34;6.03;;;1.73;;
59998;SDS011;45859;51.378;6.736;2022-07-05T07:22:59;2.20;;;1.17;;
59998;SDS011;45859;51.378;6.736;2022-07-05T07:25:25;3.33;;;1.20;;
59998;SDS011;45859;51.378;6.736;2022-07-05T07:27:51;3.28;;;1.30;;
59998;SDS011;45859;51.378;6.736;2022-07-05T07:30:20;1.90;;;0.80;;
59998;SDS011;45859;51.378;6.736;2022-07-05T07:32:54;1.77;;;0.88;;
59998;SDS011;45859;51.378;6.736;2022-07-05T07:35:20;0.85;;;0.70;;
59998;SDS011;45859;51.378;6.736;2022-07-05T07:37:46;4.38;;;1.20;;
59998;SDS011;45859;51.378;6.736;2022-07-05T07:40:12;5.07;;;1.70;;
59998;SDS011;45859;51.378;6.736;2022-07-05T07:42:38;6.63;;;1.67;;
59998;SDS011;45859;51.378;6.736;2022-07-05T07:45:04;2.60;;;1.25;;
59998;SDS011;45859;51.378;6.736;2022-07-05T07:47:33;1.65;;;1.40;;
59998;SDS011;45859;51.378;6.736;2022-07-05T07:50:00;1.42;;;1.17;;
59998;SDS011;45859;51.378;6.736;2022-07-05T07:52:27;4.35;;;1.38;;
59998;SDS011;45859;51.378;6.736;2022-07-05T07:54:52;2.85;;;1.20;;
59998;SDS011;45859;51.378;6.736;2022-07-05T07:57:18;2.63;;;0.90;;
59998;SDS011;45859;51.378;6.736;2022-07-05T07:59:44;3.33;;;1.40;;
59998;SDS011;45859;51.378;6.736;2022-07-05T08:02:09;2.70;;;1.17;;
59998;SDS011;45859;51.378;6.736;2022-07-05T08:04:35;2.70;;;1.40;;
59998;SDS011;45859;51.378;6.736;2022-07-05T08:07:01;5.47;;;1.60;;
59998;SDS011;45859;51.378;6.736;2022-07-05T08:09:28;3.85;;;1.27;;
59998;SDS011;45859;51.378;6.736;2022-07-05T08:11:54;3.28;;;1.30;;
59998;SDS011;45859;51.378;6.736;2022-07-05T08:14:21;1.33;;;1.02;;
59998;SDS011;45859;51.378;6.736;2022-07-05T08:16:47;1.70;;;1.10;;
59998;SDS011;45859;51.378;6.736;2022-07-05T08:19:14;1.88;;;0.90;;
59998;SDS011;45859;51.378;6.736;2022-07-05T08:21:58;1.88;;;0.90;;
59998;SDS011;45859;51.378;6.736;2022-07-05T08:24:24;2.35;;;0.88;;
59998;SDS011;45859;51.378;6.736;2022-07-05T08:26:50;3.70;;;1.40;;
59998;SDS011;45859;51.378;6.736;2022-07-05T08:29:15;2.60;;;1.30;;
59998;SDS011;45859;51.378;6.736;2022-07-05T08:31:46;7.35;;;1.27;;
59998;SDS011;45859;51.378;6.736;2022-07-05T08:34:14;2.35;;;1.02;;
59998;SDS011;45859;51.378;6.736;2022-07-05T08:36:42;3.78;;;1.00;;
59998;SDS011;45859;51.378;6.736;2022-07-05T08:39:08;2.42;;;1.50;;
59998;SDS011;45859;51.378;6.736;2022-07-05T08:41:39;1.40;;;0.98;;
59998;SDS011;45859;51.378;6.736;2022-07-05T08:44:06;2.33;;;1.00;;
59998;SDS011;45859;51.378;6.736;2022-07-05T08:46:32;2.63;;;0.90;;
59998;SDS011;45859;51.378;6.736;2022-07-05T08:49:02;2.03;;;1.00;;
59998;SDS011;45859;51.378;6.736;2022-07-05T08:51:32;3.35;;;1.20;;
59998;SDS011;45859;51.378;6.736;2022-07-05T08:54:01;3.15;;;1.17;;
59998;SDS011;45859;51.378;6.736;2022-07-05T08:56:27;3.42;;;1.40;;
59998;SDS011;45859;51.378;6.736;2022-07-05T08:58:52;2.30;;;1.25;;
59998;SDS011;45859;51.378;6.736;2022-07-05T09:01:18;1.45;;;0.90;;
59998;SDS011;45859;51.378;6.736;2022-07-05T09:03:46;2.70;;;1.10;;
59998;SDS011;45859;51.378;6.736;2022-07-05T09:06:19;2.28;;;1.10;;
59998;SDS011;45859;51.378;6.736;2022-07-05T09:08:51;2.80;;;0.77;;
59998;SDS011;45859;51.378;6.736;2022-07-05T09:11:20;4.35;;;1.52;;
59998;SDS011;45859;51.378;6.736;2022-07-05T09:13:50;2.88;;;1.10;;
59998;SDS011;45859;51.378;6.736;2022-07-05T09:16:16;3.03;;;0.90;;
59998;SDS011;45859;51.378;6.736;2022-07-05T09:18:50;2.80;;;1.30;;
59998;SDS011;45859;51.378;6.736;2022-07-05T09:21:17;3.55;;;1.10;;
59998;SDS011;45859;51.378;6.736;2022-07-05T09:23:56;2.55;;;1.10;;
59998;SDS011;45859;51.378;6.736;2022-07-05T09:26:37;1.83;;;1.02;;
59998;SDS011;45859;51.378;6.736;2022-07-05T09:29:10;1.13;;;0.80;;
59998;SDS011;45859;51.378;6.736;2022-07-05T09:31:41;2.65;;;1.05;;
59998;SDS011;45859;51.378;6.736;2022-07-05T09:34:08;1.92;;;1.17;;
59998;SDS011;45859;51.378;6.736;2022-07-05T09:36:48;3.53;;;1.10;;
59998;SDS011;45859;51.378;6.736;2022-07-05T09:39:35;1.52;;;1.00;;
59998;SDS011;45859;51.378;6.736;2022-07-05T09:44:46;3.95;;;1.10;;
59998;SDS011;45859;51.378;6.736;2022-07-05T09:47:15;3.13;;;1.00;;
59998;SDS011;45859;51.378;6.736;2022-07-05T09:49:44;1.17;;;0.80;;
59998;SDS011;45859;51.378;6.736;2022-07-05T09:52:25;1.40;;;0.88;;
59998;SDS011;45859;51.378;6.736;2022-07-05T09:55:06;3.90;;;1.23;;
59998;SDS011;45859;51.378;6.736;2022-07-05T09:57:33;2.20;;;1.35;;
59998;SDS011;45859;51.378;6.736;2022-07-05T10:00:00;1.40;;;0.80;;
59998;SDS011;45859;51.378;6.736;2022-07-05T10:05:17;2.33;;;1.05;;
59998;SDS011;45859;51.378;6.736;2022-07-05T10:07:48;1.23;;;1.13;;
59998;SDS011;45859;51.378;6.736;2022-07-05T10:10:25;4.57;;;1.00;;
59998;SDS011;45859;51.378;6.736;2022-07-05T10:12:53;3.13;;;1.13;;
59998;SDS011;45859;51.378;6.736;2022-07-05T10:15:39;1.20;;;1.10;;
59998;SDS011;45859;51.378;6.736;2022-07-05T10:18:14;3.10;;;1.20;;
59998;SDS011;45859;51.378;6.736;2022-07-05T10:20:45;3.17;;;1.13;;
59998;SDS011;45859;51.378;6.736;2022-07-05T10:23:18;1.65;;;0.93;;
59998;SDS011;45859;51.378;6.736;2022-07-05T10:25:48;2.50;;;1.48;;
59998;SDS011;45859;51.378;6.736;2022-07-05T10:28:15;3.08;;;1.13;;
59998;SDS011;45859;51.378;6.736;2022-07-05T10:30:43;14.93;;;2.53;;
59998;SDS011;45859;51.378;6.736;2022-07-05T10:33:12;4.82;;;1.20;;
59998;SDS011;45859;51.378;6.736;2022-07-05T10:35:44;2.65;;;1.20;;
59998;SDS011;45859;51.378;6.736;2022-07-05T10:38:10;2.20;;;1.33;;
59998;SDS011;45859;51.378;6.736;2022-07-05T10:40:37;2.53;;;1.10;;
59998;SDS011;45859;51.378;6.736;2022-07-05T10:43:05;12.50;;;1.85;;
59998;SDS011;45859;51.378;6.736;2022-07-05T10:45:39;4.40;;;1.73;;
59998;SDS011;45859;51.378;6.736;2022-07-05T10:50:45;4.00;;;1.58;;
59998;SDS011;45859;51.378;6.736;2022-07-05T10:58:29;1.98;;;1.42;;
59998;SDS011;45859;51.378;6.736;2022-07-05T11:03:48;2.92;;;1.33;;
59998;SDS011;45859;51.378;6.736;2022-07-05T11:06:24;1.17;;;0.90;;
59998;SDS011;45859;51.378;6.736;2022-07-05T11:11:28;1.38;;;0.90;;
59998;SDS011;45859;51.378;6.736;2022-07-05T11:13:56;1.88;;;0.90;;
59998;SDS011;45859;51.378;6.736;2022-07-05T11:16:36;2.70;;;0.80;;
59998;SDS011;45859;51.378;6.736;2022-07-05T11:19:05;2.85;;;1.05;;
59998;SDS011;45859;51.378;6.736;2022-07-05T11:21:35;1.90;;;1.10;;
59998;SDS011;45859;51.378;6.736;2022-07-05T11:24:35;1.63;;;0.88;;
59998;SDS011;45859;51.378;6.736;2022-07-05T11:27:01;1.83;;;1.10;;
59998;SDS011;45859;51.378;6.736;2022-07-05T11:32:13;3.22;;;1.30;;
59998;SDS011;45859;51.378;6.736;2022-07-05T11:34:45;2.13;;;1.17;;
59998;SDS011;45859;51.378;6.736;2022-07-05T11:42:29;3.83;;;1.23;;
59998;SDS011;45859;51.378;6.736;2022-07-05T11:44:55;1.50;;;1.20;;
59998;SDS011;45859;51.378;6.736;2022-07-05T11:47:22;2.97;;;1.00;;
59998;SDS011;45859;51.378;6.736;2022-07-05T11:49:54;3.50;;;1.20;;
59998;SDS011;45859;51.378;6.736;2022-07-05T11:52:31;1.90;;;1.33;;
59998;SDS011;45859;51.378;6.736;2022-07-05T11:55:07;2.92;;;0.95;;
59998;SDS011;45859;51.378;6.736;2022-07-05T11:57:34;1.13;;;1.02;;
59998;SDS011;45859;51.378;6.736;2022-07-05T12:00:00;1.95;;;1.30;;
59998;SDS011;45859;51.378;6.736;2022-07-05T12:02:26;1.75;;;1.10;;
59998;SDS011;45859;51.378;6.736;2022-07-05T12:04:53;0.90;;;0.90;;
59998;SDS011;45859;51.378;6.736;2022-07-05T12:07:35;1.40;;;1.08;;
59998;SDS011;45859;51.378;6.736;2022-07-05T12:10:02;3.25;;;1.10;;
59998;SDS011;45859;51.378;6.736;2022-07-05T12:12:47;5.07;;;1.30;;
59998;SDS011;45859;51.378;6.736;2022-07-05T12:15:14;4.18;;;1.55;;
59998;SDS011;45859;51.378;6.736;2022-07-05T12:17:42;2.38;;;1.10;;
59998;SDS011;45859;51.378;6.736;2022-07-05T12:20:10;3.42;;;1.20;;
59998;SDS011;45859;51.378;6.736;2022-07-05T12:22:39;1.98;;;1.00;;
59998;SDS011;45859;51.378;6.736;2022-07-05T12:25:13;3.03;;;1.40;;
59998;SDS011;45859;51.378;6.736;2022-07-05T12:27:41;1.58;;;1.38;;
59998;SDS011;45859;51.378;6.736;2022-07-05T12:30:08;1.90;;;1.30;;
59998;SDS011;45859;51.378;6.736;2022-07-05T12:35:31;1.95;;;1.20;;
59998;SDS011;45859;51.378;6.736;2022-07-05T12:38:05;4.15;;;1.27;;
59998;SDS011;45859;51.378;6.736;2022-07-05T12:40:38;2.00;;;1.40;;
59998;SDS011;45859;51.378;6.736;2022-07-05T12:43:05;2.55;;;2.22;;
59998;SDS011;45859;51.378;6.736;2022-07-05T12:45:32;2.53;;;1.58;;
59998;SDS011;45859;51.378;6.736;2022-07-05T12:48:05;3.90;;;1.40;;
59998;SDS011;45859;51.378;6.736;2022-07-05T12:50:51;1.55;;;1.20;;
59998;SDS011;45859;51.378;6.736;2022-07-05T12:53:17;2.67;;;1.58;;
59998;SDS011;45859;51.378;6.736;2022-07-05T12:56:07;2.60;;;1.30;;
59998;SDS011;45859;51.378;6.736;2022-07-05T12:58:53;2.35;;;1.38;;
59998;SDS011;45859;51.378;6.736;2022-07-05T13:06:44;3.17;;;1.70;;
59998;SDS011;45859;51.378;6.736;2022-07-05T13:09:14;2.90;;;1.50;;
59998;SDS011;45859;51.378;6.736;2022-07-05T13:11:42;2.85;;;1.60;;
59998;SDS011;45859;51.378;6.736;2022-07-05T13:14:08;3.03;;;1.55;;
59998;SDS011;45859;51.378;6.736;2022-07-05T13:16:34;3.30;;;1.50;;
59998;SDS011;45859;51.378;6.736;2022-07-05T13:19:09;4.40;;;1.60;;
59998;SDS011;45859;51.378;6.736;2022-07-05T13:21:36;3.08;;;1.42;;
59998;SDS011;45859;51.378;6.736;2022-07-05T13:24:03;3.20;;;1.60;;
59998;SDS011;45859;51.378;6.736;2022-07-05T13:26:29;2.55;;;1.58;;
59998;SDS011;45859;51.378;6.736;2022-07-05T13:28:55;3.35;;;1.70;;
59998;SDS011;45859;51.378;6.736;2022-07-05T13:31:20;2.47;;;1.63;;
59998;SDS011;45859;51.378;6.736;2022-07-05T13:33:46;2.53;;;1.80;;
59998;SDS011;45859;51.378;6.736;2022-07-05T13:36:12;3.47;;;2.40;;
59998;SDS011;45859;51.378;6.736;2022-07-05T13:38:37;2.00;;;1.80;;
59998;SDS011;45859;51.378;6.736;2022-07-05T13:41:03;5.18;;;2.10;;
59998;SDS011;45859;51.378;6.736;2022-07-05T13:43:28;2.80;;;1.83;;
59998;SDS011;45859;51.378;6.736;2022-07-05T13:45:54;5.18;;;1.70;;
59998;SDS011;45859;51.378;6.736;2022-07-05T13:48:20;2.40;;;1.80;;
59998;SDS011;45859;51.378;6.736;2022-07-05T13:50:45;2.13;;;1.67;;
59998;SDS011;45859;51.378;6.736;2022-07-05T13:53:11;4.15;;;1.95;;
59998;SDS011;45859;51.378;6.736;2022-07-05T13:55:37;1.63;;;1.50;;
59998;SDS011;45859;51.378;6.736;2022-07-05T13:58:02;5.60;;;1.95;;
59998;SDS011;45859;51.378;6.736;2022-07-05T14:00:28;5.97;;;2.30;;
59998;SDS011;45859;51.378;6.736;2022-07-05T14:02:54;3.15;;;2.28;;
59998;SDS011;45859;51.378;6.736;2022-07-05T14:05:19;4.18;;;1.98;;
59998;SDS011;45859;51.378;6.736;2022-07-05T14:07:46;5.45;;;3.58;;
59998;SDS011;45859;51.378;6.736;2022-07-05T14:10:13;2.78;;;2.30;;
59998;SDS011;45859;51.378;6.736;2022-07-05T14:12:39;5.43;;;2.90;;
59998;SDS011;45859;51.378;6.736;2022-07-05T14:15:05;4.45;;;3.00;;
59998;SDS011;45859;51.378;6.736;2022-07-05T14:17:32;6.10;;;2.53;;
59998;SDS011;45859;51.378;6.736;2022-07-05T14:19:57;4.60;;;2.67;;
59998;SDS011;45859;51.378;6.736;2022-07-05T14:22:23;3.65;;;2.17;;
59998;SDS011;45859;51.378;6.736;2022-07-05T14:24:49;5.38;;;2.28;;
59998;SDS011;45859;51.378;6.736;2022-07-05T14:27:14;4.65;;;2.70;;
59998;SDS011;45859;51.378;6.736;2022-07-05T14:29:40;3.40;;;2.55;;
59998;SDS011;45859;51.378;6.736;2022-07-05T14:32:06;4.72;;;2.67;;
59998;SDS011;45859;51.378;6.736;2022-07-05T14:34:32;9.98;;;3.67;;
59998;SDS011;45859;51.378;6.736;2022-07-05T14:36:58;5.75;;;3.00;;
59998;SDS011;45859;51.378;6.736;2022-07-05T14:39:26;5.20;;;3.20;;
59998;SDS011;45859;51.378;6.736;2022-07-05T14:41:52;6.97;;;3.33;;
59998;SDS011;45859;51.378;6.736;2022-07-05T14:44:18;3.38;;;3.08;;
59998;SDS011;45859;51.378;6.736;2022-07-05T14:46:43;3.92;;;3.25;;
59998;SDS011;45859;51.378;6.736;2022-07-05T14:49:09;5.43;;;3.10;;
59998;SDS011;45859;51.378;6.736;2022-07-05T14:51:35;3.65;;;2.90;;
59998;SDS011;45859;51.378;6.736;2022-07-05T14:54:00;4.70;;;3.65;;
59998;SDS011;45859;51.378;6.736;2022-07-05T14:56:26;6.65;;;2.67;;
59998;SDS011;45859;51.378;6.736;2022-07-05T14:58:52;4.88;;;2.35;;
59998;SDS011;45859;51.378;6.736;2022-07-05T15:01:17;3.75;;;2.75;;
59998;SDS011;45859;51.378;6.736;2022-07-05T15:03:43;4.20;;;2.67;;
59998;SDS011;45859;51.378;6.736;2022-07-05T15:06:09;4.40;;;2.85;;
59998;SDS011;45859;51.378;6.736;2022-07-05T15:08:35;5.13;;;3.25;;
59998;SDS011;45859;51.378;6.736;2022-07-05T15:11:01;4.18;;;3.20;;
59998;SDS011;45859;51.378;6.736;2022-07-05T15:13:28;5.18;;;3.50;;
59998;SDS011;45859;51.378;6.736;2022-07-05T15:15:54;7.80;;;3.97;;
59998;SDS011;45859;51.378;6.736;2022-07-05T15:18:21;4.53;;;3.17;;
59998;SDS011;45859;51.378;6.736;2022-07-05T15:20:47;5.53;;;3.30;;
59998;SDS011;45859;51.378;6.736;2022-07-05T15:23:13;4.10;;;2.67;;
59998;SDS011;45859;51.378;6.736;2022-07-05T15:25:39;4.60;;;2.45;;